sensor_id;sensor_type;location;lat;lon;timestamp;P1;durP1;ratioP1;P2;durP2;ratioP2
28828;SDS011;15966;51.540;11.870;2023-04-10T00:00:42;32.63;;;23.52;;
28828;SDS011;15966;51.540;11.870;2023-04-10T00:03:09;30.45;;;22.25;;
28828;SDS011;15966;51.540;11.870;2023-04-10T00:05:36;33.08;;;24.08;;
28828;SDS011;15966;51.540;11.870;2023-04-10T00:08:02;29.42;;;24.42;;
28828;SDS011;15966;51.540;11.870;2023-04-10T00:10:28;27.70;;;23.83;;
28828;SDS011;15966;51.540;11.870;2023-04-10T00:12:56;33.35;;;25.55;;
28828;SDS011;15966;51.540;11.870;2023-04-10T00:15:24;34.20;;;25.02;;
28828;SDS011;15966;51.540;11.870;2023-04-10T00:17:50;35.05;;;27.48;;
28828;SDS011;15966;51.540;11.870;2023-04-10T00:20:19;37.33;;;25.95;;
28828;SDS011;15966;51.540;11.870;2023-04-10T00:22:46;35.03;;;27.23;;
28828;SDS011;15966;51.540;11.870;2023-04-10T00:25:12;36.55;;;26.75;;
28828;SDS011;15966;51.540;11.870;2023-04-10T00:27:39;37.30;;;28.67;;
28828;SDS011;15966;51.540;11.870;2023-04-10T00:30:05;30.02;;;24.38;;
28828;SDS011;15966;51.540;11.870;2023-04-10T00:32:32;32.78;;;26.20;;
28828;SDS011;15966;51.540;11.870;2023-04-10T00:34:58;28.48;;;23.77;;
28828;SDS011;15966;51.540;11.870;2023-04-10T00:37:24;29.75;;;24.67;;
28828;SDS011;15966;51.540;11.870;2023-04-10T00:39:51;28.30;;;23.40;;
28828;SDS011;15966;51.540;11.870;2023-04-10T00:42:17;31.13;;;24.55;;
28828;SDS011;15966;51.540;11.870;2023-04-10T00:44:43;31.85;;;25.15;;
28828;SDS011;15966;51.540;11.870;2023-04-10T00:47:10;32.05;;;23.05;;
28828;SDS011;15966;51.540;11.870;2023-04-10T00:49:38;29.98;;;23.58;;
28828;SDS011;15966;51.540;11.870;2023-04-10T00:52:04;35.33;;;26.27;;
28828;SDS011;15966;51.540;11.870;2023-04-10T00:54:31;34.88;;;26.27;;
28828;SDS011;15966;51.540;11.870;2023-04-10T00:56:57;35.72;;;26.13;;
28828;SDS011;15966;51.540;11.870;2023-04-10T00:59:23;30.98;;;25.30;;
28828;SDS011;15966;51.540;11.870;2023-04-10T01:01:49;31.95;;;24.83;;
28828;SDS011;15966;51.540;11.870;2023-04-10T01:04:16;31.35;;;24.20;;
28828;SDS011;15966;51.540;11.870;2023-04-10T01:06:53;31.38;;;24.67;;
28828;SDS011;15966;51.540;11.870;2023-04-10T01:09:39;31.75;;;25.42;;
28828;SDS011;15966;51.540;11.870;2023-04-10T01:18:18;32.15;;;24.73;;
28828;SDS011;15966;51.540;11.870;2023-04-10T01:21:05;33.08;;;24.40;;
28828;SDS011;15966;51.540;11.870;2023-04-10T01:26:17;28.13;;;22.60;;
28828;SDS011;15966;51.540;11.870;2023-04-10T01:28:53;30.25;;;23.60;;
28828;SDS011;15966;51.540;11.870;2023-04-10T01:34:06;33.58;;;24.95;;
28828;SDS011;15966;51.540;11.870;2023-04-10T01:36:39;29.27;;;22.38;;
28828;SDS011;15966;51.540;11.870;2023-04-10T01:39:08;25.52;;;20.80;;
28828;SDS011;15966;51.540;11.870;2023-04-10T01:41:35;29.20;;;23.58;;
28828;SDS011;15966;51.540;11.870;2023-04-10T01:44:02;33.17;;;23.02;;
28828;SDS011;15966;51.540;11.870;2023-04-10T01:46:29;29.85;;;23.35;;
28828;SDS011;15966;51.540;11.870;2023-04-10T01:48:56;30.25;;;23.88;;
28828;SDS011;15966;51.540;11.870;2023-04-10T01:51:25;29.55;;;23.63;;
28828;SDS011;15966;51.540;11.870;2023-04-10T01:53:51;27.48;;;20.67;;
28828;SDS011;15966;51.540;11.870;2023-04-10T01:56:18;31.55;;;23.67;;
28828;SDS011;15966;51.540;11.870;2023-04-10T01:58:44;27.60;;;22.70;;
28828;SDS011;15966;51.540;11.870;2023-04-10T02:01:10;31.77;;;23.42;;
28828;SDS011;15966;51.540;11.870;2023-04-10T02:03:44;30.05;;;24.67;;
28828;SDS011;15966;51.540;11.870;2023-04-10T02:09:03;32.63;;;23.75;;
28828;SDS011;15966;51.540;11.870;2023-04-10T02:11:58;28.45;;;24.40;;
28828;SDS011;15966;51.540;11.870;2023-04-10T02:14:30;27.88;;;22.08;;
28828;SDS011;15966;51.540;11.870;2023-04-10T02:16:58;28.83;;;23.58;;
28828;SDS011;15966;51.540;11.870;2023-04-10T02:19:26;33.90;;;25.55;;
28828;SDS011;15966;51.540;11.870;2023-04-10T02:21:52;29.38;;;23.30;;
28828;SDS011;15966;51.540;11.870;2023-04-10T02:24:19;32.72;;;25.33;;
28828;SDS011;15966;51.540;11.870;2023-04-10T02:26:49;30.75;;;23.80;;
28828;SDS011;15966;51.540;11.870;2023-04-10T02:29:16;29.90;;;24.05;;
28828;SDS011;15966;51.540;11.870;2023-04-10T02:34:30;30.85;;;23.52;;
28828;SDS011;15966;51.540;11.870;2023-04-10T02:36:56;31.88;;;24.85;;
28828;SDS011;15966;51.540;11.870;2023-04-10T02:39:22;29.67;;;24.77;;
28828;SDS011;15966;51.540;11.870;2023-04-10T02:41:48;33.28;;;23.98;;
28828;SDS011;15966;51.540;11.870;2023-04-10T02:44:15;32.05;;;26.83;;
28828;SDS011;15966;51.540;11.870;2023-04-10T02:46:41;30.45;;;24.55;;
28828;SDS011;15966;51.540;11.870;2023-04-10T02:49:07;33.97;;;25.70;;
28828;SDS011;15966;51.540;11.870;2023-04-10T02:51:33;34.45;;;25.52;;
28828;SDS011;15966;51.540;11.870;2023-04-10T02:54:00;34.97;;;27.00;;
28828;SDS011;15966;51.540;11.870;2023-04-10T02:56:26;37.83;;;27.08;;
28828;SDS011;15966;51.540;11.870;2023-04-10T02:58:52;35.25;;;26.65;;
28828;SDS011;15966;51.540;11.870;2023-04-10T03:01:19;37.17;;;26.70;;
28828;SDS011;15966;51.540;11.870;2023-04-10T03:03:46;34.15;;;27.48;;
28828;SDS011;15966;51.540;11.870;2023-04-10T03:06:12;33.55;;;25.13;;
28828;SDS011;15966;51.540;11.870;2023-04-10T03:08:38;30.83;;;24.77;;
28828;SDS011;15966;51.540;11.870;2023-04-10T03:11:04;33.30;;;26.10;;
28828;SDS011;15966;51.540;11.870;2023-04-10T03:13:31;38.47;;;26.47;;
28828;SDS011;15966;51.540;11.870;2023-04-10T03:15:57;31.38;;;25.13;;
28828;SDS011;15966;51.540;11.870;2023-04-10T03:18:23;28.05;;;23.05;;
28828;SDS011;15966;51.540;11.870;2023-04-10T03:20:49;33.10;;;27.17;;
28828;SDS011;15966;51.540;11.870;2023-04-10T03:23:15;40.15;;;26.15;;
28828;SDS011;15966;51.540;11.870;2023-04-10T03:25:41;31.27;;;25.70;;
28828;SDS011;15966;51.540;11.870;2023-04-10T03:28:08;35.63;;;27.70;;
28828;SDS011;15966;51.540;11.870;2023-04-10T03:30:34;30.38;;;24.60;;
28828;SDS011;15966;51.540;11.870;2023-04-10T03:33:01;34.60;;;27.25;;
28828;SDS011;15966;51.540;11.870;2023-04-10T03:35:27;35.53;;;26.17;;
28828;SDS011;15966;51.540;11.870;2023-04-10T03:37:53;33.33;;;24.58;;
28828;SDS011;15966;51.540;11.870;2023-04-10T03:40:19;33.17;;;25.30;;
28828;SDS011;15966;51.540;11.870;2023-04-10T03:42:45;32.85;;;25.13;;
28828;SDS011;15966;51.540;11.870;2023-04-10T03:45:11;28.58;;;23.25;;
28828;SDS011;15966;51.540;11.870;2023-04-10T03:47:37;31.77;;;24.48;;
28828;SDS011;15966;51.540;11.870;2023-04-10T03:50:03;34.17;;;25.63;;
28828;SDS011;15966;51.540;11.870;2023-04-10T03:52:30;34.60;;;25.25;;
28828;SDS011;15966;51.540;11.870;2023-04-10T03:54:56;32.42;;;24.77;;
28828;SDS011;15966;51.540;11.870;2023-04-10T03:57:22;34.83;;;26.02;;
28828;SDS011;15966;51.540;11.870;2023-04-10T03:59:48;37.30;;;26.88;;
28828;SDS011;15966;51.540;11.870;2023-04-10T04:02:15;33.00;;;23.98;;
28828;SDS011;15966;51.540;11.870;2023-04-10T04:04:41;37.65;;;25.92;;
28828;SDS011;15966;51.540;11.870;2023-04-10T04:07:07;38.33;;;27.95;;
28828;SDS011;15966;51.540;11.870;2023-04-10T04:09:35;34.17;;;26.17;;
28828;SDS011;15966;51.540;11.870;2023-04-10T04:12:01;34.08;;;23.77;;
28828;SDS011;15966;51.540;11.870;2023-04-10T04:14:27;33.47;;;27.17;;
28828;SDS011;15966;51.540;11.870;2023-04-10T04:16:53;31.77;;;23.05;;
28828;SDS011;15966;51.540;11.870;2023-04-10T04:19:19;33.58;;;26.10;;
28828;SDS011;15966;51.540;11.870;2023-04-10T04:21:45;35.03;;;25.65;;
28828;SDS011;15966;51.540;11.870;2023-04-10T04:24:11;33.70;;;26.58;;
28828;SDS011;15966;51.540;11.870;2023-04-10T04:26:37;34.17;;;26.33;;
28828;SDS011;15966;51.540;11.870;2023-04-10T04:29:04;30.08;;;24.30;;
28828;SDS011;15966;51.540;11.870;2023-04-10T04:31:30;34.47;;;24.95;;
28828;SDS011;15966;51.540;11.870;2023-04-10T04:33:57;33.13;;;25.98;;
28828;SDS011;15966;51.540;11.870;2023-04-10T04:36:23;37.75;;;27.50;;
28828;SDS011;15966;51.540;11.870;2023-04-10T04:38:50;39.55;;;27.55;;
28828;SDS011;15966;51.540;11.870;2023-04-10T04:41:16;39.35;;;29.23;;
28828;SDS011;15966;51.540;11.870;2023-04-10T04:43:42;35.33;;;26.70;;
28828;SDS011;15966;51.540;11.870;2023-04-10T04:46:08;39.63;;;28.17;;
28828;SDS011;15966;51.540;11.870;2023-04-10T04:48:34;37.85;;;28.40;;
28828;SDS011;15966;51.540;11.870;2023-04-10T04:51:00;38.65;;;27.63;;
28828;SDS011;15966;51.540;11.870;2023-04-10T04:53:26;37.25;;;26.67;;
28828;SDS011;15966;51.540;11.870;2023-04-10T04:55:52;33.83;;;26.63;;
28828;SDS011;15966;51.540;11.870;2023-04-10T04:58:19;35.28;;;27.25;;
28828;SDS011;15966;51.540;11.870;2023-04-10T05:00:45;31.58;;;23.05;;
28828;SDS011;15966;51.540;11.870;2023-04-10T05:03:11;33.33;;;25.00;;
28828;SDS011;15966;51.540;11.870;2023-04-10T05:05:37;29.00;;;22.10;;
28828;SDS011;15966;51.540;11.870;2023-04-10T05:08:03;35.10;;;27.45;;
28828;SDS011;15966;51.540;11.870;2023-04-10T05:10:29;33.28;;;25.75;;
28828;SDS011;15966;51.540;11.870;2023-04-10T05:12:56;29.48;;;24.38;;
28828;SDS011;15966;51.540;11.870;2023-04-10T05:15:22;27.52;;;22.33;;
28828;SDS011;15966;51.540;11.870;2023-04-10T05:17:48;34.67;;;26.05;;
28828;SDS011;15966;51.540;11.870;2023-04-10T05:20:15;33.80;;;26.45;;
28828;SDS011;15966;51.540;11.870;2023-04-10T05:22:41;30.55;;;22.80;;
28828;SDS011;15966;51.540;11.870;2023-04-10T05:25:07;29.88;;;24.05;;
28828;SDS011;15966;51.540;11.870;2023-04-10T05:27:33;32.75;;;26.40;;
28828;SDS011;15966;51.540;11.870;2023-04-10T05:29:59;34.25;;;26.10;;
28828;SDS011;15966;51.540;11.870;2023-04-10T05:32:25;36.10;;;29.10;;
28828;SDS011;15966;51.540;11.870;2023-04-10T05:34:51;32.47;;;24.60;;
28828;SDS011;15966;51.540;11.870;2023-04-10T05:37:17;36.13;;;26.13;;
28828;SDS011;15966;51.540;11.870;2023-04-10T05:39:43;35.55;;;26.10;;
28828;SDS011;15966;51.540;11.870;2023-04-10T05:42:10;34.67;;;27.40;;
28828;SDS011;15966;51.540;11.870;2023-04-10T05:44:37;37.03;;;29.73;;
28828;SDS011;15966;51.540;11.870;2023-04-10T05:47:03;44.53;;;32.38;;
28828;SDS011;15966;51.540;11.870;2023-04-10T05:49:29;38.13;;;27.25;;
28828;SDS011;15966;51.540;11.870;2023-04-10T05:51:55;40.97;;;30.92;;
28828;SDS011;15966;51.540;11.870;2023-04-10T05:54:21;50.47;;;37.60;;
28828;SDS011;15966;51.540;11.870;2023-04-10T05:56:47;48.35;;;36.35;;
28828;SDS011;15966;51.540;11.870;2023-04-10T05:59:13;42.58;;;33.00;;
28828;SDS011;15966;51.540;11.870;2023-04-10T06:01:40;41.15;;;33.28;;
28828;SDS011;15966;51.540;11.870;2023-04-10T06:04:06;38.70;;;30.90;;
28828;SDS011;15966;51.540;11.870;2023-04-10T06:06:32;41.30;;;31.88;;
28828;SDS011;15966;51.540;11.870;2023-04-10T06:08:58;37.47;;;28.33;;
28828;SDS011;15966;51.540;11.870;2023-04-10T06:11:24;36.42;;;28.02;;
28828;SDS011;15966;51.540;11.870;2023-04-10T06:13:51;35.10;;;30.58;;
28828;SDS011;15966;51.540;11.870;2023-04-10T06:16:17;41.47;;;29.40;;
28828;SDS011;15966;51.540;11.870;2023-04-10T06:18:43;33.50;;;26.55;;
28828;SDS011;15966;51.540;11.870;2023-04-10T06:21:10;36.05;;;29.45;;
28828;SDS011;15966;51.540;11.870;2023-04-10T06:23:36;36.60;;;30.38;;
28828;SDS011;15966;51.540;11.870;2023-04-10T06:26:02;31.05;;;27.38;;
28828;SDS011;15966;51.540;11.870;2023-04-10T06:28:28;39.53;;;30.05;;
28828;SDS011;15966;51.540;11.870;2023-04-10T06:30:54;35.90;;;28.42;;
28828;SDS011;15966;51.540;11.870;2023-04-10T06:33:21;39.20;;;32.88;;
28828;SDS011;15966;51.540;11.870;2023-04-10T06:35:47;43.35;;;33.03;;
28828;SDS011;15966;51.540;11.870;2023-04-10T06:38:14;37.65;;;30.92;;
28828;SDS011;15966;51.540;11.870;2023-04-10T06:40:40;41.50;;;33.08;;
28828;SDS011;15966;51.540;11.870;2023-04-10T06:43:06;38.13;;;31.13;;
28828;SDS011;15966;51.540;11.870;2023-04-10T06:45:32;43.33;;;34.60;;
28828;SDS011;15966;51.540;11.870;2023-04-10T06:47:58;40.97;;;33.22;;
28828;SDS011;15966;51.540;11.870;2023-04-10T06:50:24;38.38;;;31.00;;
28828;SDS011;15966;51.540;11.870;2023-04-10T06:52:51;39.90;;;31.05;;
28828;SDS011;15966;51.540;11.870;2023-04-10T06:55:20;35.17;;;31.15;;
28828;SDS011;15966;51.540;11.870;2023-04-10T06:57:46;39.20;;;31.10;;
28828;SDS011;15966;51.540;11.870;2023-04-10T07:00:12;36.63;;;29.08;;
28828;SDS011;15966;51.540;11.870;2023-04-10T07:02:39;37.22;;;29.80;;
28828;SDS011;15966;51.540;11.870;2023-04-10T07:05:05;36.67;;;30.60;;
28828;SDS011;15966;51.540;11.870;2023-04-10T07:07:31;40.08;;;30.05;;
28828;SDS011;15966;51.540;11.870;2023-04-10T07:09:58;34.08;;;28.15;;
28828;SDS011;15966;51.540;11.870;2023-04-10T07:12:24;34.72;;;29.77;;
28828;SDS011;15966;51.540;11.870;2023-04-10T07:14:50;33.40;;;29.50;;
28828;SDS011;15966;51.540;11.870;2023-04-10T07:17:16;39.17;;;32.10;;
28828;SDS011;15966;51.540;11.870;2023-04-10T07:19:42;36.70;;;31.88;;
28828;SDS011;15966;51.540;11.870;2023-04-10T07:22:09;33.78;;;28.63;;
28828;SDS011;15966;51.540;11.870;2023-04-10T07:24:35;35.15;;;28.10;;
28828;SDS011;15966;51.540;11.870;2023-04-10T07:27:01;36.17;;;29.17;;
28828;SDS011;15966;51.540;11.870;2023-04-10T07:29:27;31.25;;;27.95;;
28828;SDS011;15966;51.540;11.870;2023-04-10T07:31:54;34.22;;;28.85;;
28828;SDS011;15966;51.540;11.870;2023-04-10T07:34:20;34.85;;;27.90;;
28828;SDS011;15966;51.540;11.870;2023-04-10T07:36:46;33.83;;;30.08;;
28828;SDS011;15966;51.540;11.870;2023-04-10T07:39:12;33.13;;;28.15;;
28828;SDS011;15966;51.540;11.870;2023-04-10T07:41:38;33.72;;;28.10;;
28828;SDS011;15966;51.540;11.870;2023-04-10T07:44:04;29.83;;;26.35;;
28828;SDS011;15966;51.540;11.870;2023-04-10T07:46:30;28.98;;;25.63;;
28828;SDS011;15966;51.540;11.870;2023-04-10T07:48:56;30.27;;;26.38;;
28828;SDS011;15966;51.540;11.870;2023-04-10T07:51:22;34.58;;;28.10;;
28828;SDS011;15966;51.540;11.870;2023-04-10T07:53:49;34.80;;;26.30;;
28828;SDS011;15966;51.540;11.870;2023-04-10T07:56:16;32.55;;;27.33;;
28828;SDS011;15966;51.540;11.870;2023-04-10T07:58:43;31.38;;;27.63;;
28828;SDS011;15966;51.540;11.870;2023-04-10T08:01:09;29.48;;;24.58;;
28828;SDS011;15966;51.540;11.870;2023-04-10T08:03:36;36.38;;;26.90;;
28828;SDS011;15966;51.540;11.870;2023-04-10T08:06:07;31.10;;;26.13;;
28828;SDS011;15966;51.540;11.870;2023-04-10T08:08:37;30.63;;;24.47;;
28828;SDS011;15966;51.540;11.870;2023-04-10T08:11:06;23.67;;;20.88;;
28828;SDS011;15966;51.540;11.870;2023-04-10T08:13:47;27.23;;;22.70;;
28828;SDS011;15966;51.540;11.870;2023-04-10T08:16:13;24.23;;;21.42;;
28828;SDS011;15966;51.540;11.870;2023-04-10T08:18:39;27.50;;;23.52;;
28828;SDS011;15966;51.540;11.870;2023-04-10T08:21:05;26.65;;;21.73;;
28828;SDS011;15966;51.540;11.870;2023-04-10T08:23:31;24.92;;;22.23;;
28828;SDS011;15966;51.540;11.870;2023-04-10T08:25:57;24.55;;;20.85;;
28828;SDS011;15966;51.540;11.870;2023-04-10T08:28:24;26.67;;;23.58;;
28828;SDS011;15966;51.540;11.870;2023-04-10T08:30:51;25.08;;;20.60;;
28828;SDS011;15966;51.540;11.870;2023-04-10T08:35:46;22.05;;;19.77;;
28828;SDS011;15966;51.540;11.870;2023-04-10T08:38:13;25.27;;;21.20;;
28828;SDS011;15966;51.540;11.870;2023-04-10T08:40:39;24.52;;;20.08;;
28828;SDS011;15966;51.540;11.870;2023-04-10T08:43:05;23.65;;;21.25;;
28828;SDS011;15966;51.540;11.870;2023-04-10T08:45:31;22.95;;;20.52;;
28828;SDS011;15966;51.540;11.870;2023-04-10T08:47:59;23.30;;;18.95;;
28828;SDS011;15966;51.540;11.870;2023-04-10T08:50:27;22.90;;;19.60;;
28828;SDS011;15966;51.540;11.870;2023-04-10T08:52:55;19.63;;;17.35;;
28828;SDS011;15966;51.540;11.870;2023-04-10T08:55:25;21.65;;;18.90;;
28828;SDS011;15966;51.540;11.870;2023-04-10T08:57:51;21.52;;;18.70;;
28828;SDS011;15966;51.540;11.870;2023-04-10T09:00:18;23.52;;;20.40;;
28828;SDS011;15966;51.540;11.870;2023-04-10T09:02:44;22.65;;;20.20;;
28828;SDS011;15966;51.540;11.870;2023-04-10T09:05:10;21.33;;;19.10;;
28828;SDS011;15966;51.540;11.870;2023-04-10T09:07:37;20.65;;;18.45;;
28828;SDS011;15966;51.540;11.870;2023-04-10T09:10:04;22.38;;;20.00;;
28828;SDS011;15966;51.540;11.870;2023-04-10T09:15:06;22.25;;;18.27;;
28828;SDS011;15966;51.540;11.870;2023-04-10T09:17:33;27.90;;;21.38;;
28828;SDS011;15966;51.540;11.870;2023-04-10T09:19:59;22.60;;;19.00;;
28828;SDS011;15966;51.540;11.870;2023-04-10T09:22:31;20.15;;;18.00;;
28828;SDS011;15966;51.540;11.870;2023-04-10T09:24:59;20.73;;;18.08;;
28828;SDS011;15966;51.540;11.870;2023-04-10T09:29:55;18.40;;;16.42;;
28828;SDS011;15966;51.540;11.870;2023-04-10T09:35:12;19.88;;;16.40;;
28828;SDS011;15966;51.540;11.870;2023-04-10T09:37:39;17.27;;;15.48;;
28828;SDS011;15966;51.540;11.870;2023-04-10T09:40:18;21.07;;;17.07;;
28828;SDS011;15966;51.540;11.870;2023-04-10T09:42:45;18.88;;;16.77;;
28828;SDS011;15966;51.540;11.870;2023-04-10T09:45:11;17.45;;;15.57;;
28828;SDS011;15966;51.540;11.870;2023-04-10T09:47:37;18.45;;;14.75;;
28828;SDS011;15966;51.540;11.870;2023-04-10T09:50:03;15.98;;;14.32;;
28828;SDS011;15966;51.540;11.870;2023-04-10T09:52:30;18.52;;;15.07;;
28828;SDS011;15966;51.540;11.870;2023-04-10T09:55:00;16.10;;;14.32;;
28828;SDS011;15966;51.540;11.870;2023-04-10T09:57:29;14.43;;;12.90;;
28828;SDS011;15966;51.540;11.870;2023-04-10T10:00:00;13.70;;;11.65;;
28828;SDS011;15966;51.540;11.870;2023-04-10T10:02:29;12.00;;;10.73;;
28828;SDS011;15966;51.540;11.870;2023-04-10T10:04:56;13.57;;;12.23;;
28828;SDS011;15966;51.540;11.870;2023-04-10T10:07:24;13.48;;;12.15;;
28828;SDS011;15966;51.540;11.870;2023-04-10T10:09:51;16.13;;;13.20;;
28828;SDS011;15966;51.540;11.870;2023-04-10T10:12:34;16.63;;;14.70;;
28828;SDS011;15966;51.540;11.870;2023-04-10T10:17:42;11.57;;;10.38;;
28828;SDS011;15966;51.540;11.870;2023-04-10T10:20:13;13.25;;;11.70;;
28828;SDS011;15966;51.540;11.870;2023-04-10T10:22:42;17.73;;;15.27;;
28828;SDS011;15966;51.540;11.870;2023-04-10T10:25:09;14.02;;;12.65;;
28828;SDS011;15966;51.540;11.870;2023-04-10T10:27:36;16.83;;;15.02;;
28828;SDS011;15966;51.540;11.870;2023-04-10T10:30:03;18.00;;;14.52;;
28828;SDS011;15966;51.540;11.870;2023-04-10T10:32:31;18.67;;;16.67;;
28828;SDS011;15966;51.540;11.870;2023-04-10T10:34:59;17.63;;;15.43;;
28828;SDS011;15966;51.540;11.870;2023-04-10T10:37:27;17.80;;;14.73;;
28828;SDS011;15966;51.540;11.870;2023-04-10T10:40:00;15.15;;;13.63;;
28828;SDS011;15966;51.540;11.870;2023-04-10T10:45:20;16.77;;;13.57;;
28828;SDS011;15966;51.540;11.870;2023-04-10T10:48:05;15.13;;;13.52;;
28828;SDS011;15966;51.540;11.870;2023-04-10T10:58:50;14.35;;;12.85;;
28828;SDS011;15966;51.540;11.870;2023-04-10T11:01:18;13.43;;;12.02;;
28828;SDS011;15966;51.540;11.870;2023-04-10T11:03:45;13.48;;;12.13;;
28828;SDS011;15966;51.540;11.870;2023-04-10T11:06:14;16.08;;;11.73;;
28828;SDS011;15966;51.540;11.870;2023-04-10T11:08:44;12.90;;;11.60;;
28828;SDS011;15966;51.540;11.870;2023-04-10T11:11:15;11.25;;;10.15;;
28828;SDS011;15966;51.540;11.870;2023-04-10T11:16:17;12.38;;;9.93;;
28828;SDS011;15966;51.540;11.870;2023-04-10T11:21:11;10.98;;;9.90;;
28828;SDS011;15966;51.540;11.870;2023-04-10T11:34:22;9.70;;;8.73;;
28828;SDS011;15966;51.540;11.870;2023-04-10T11:36:48;10.77;;;9.57;;
28828;SDS011;15966;51.540;11.870;2023-04-10T11:39:14;11.10;;;9.93;;
28828;SDS011;15966;51.540;11.870;2023-04-10T11:41:43;11.48;;;10.27;;
28828;SDS011;15966;51.540;11.870;2023-04-10T11:44:32;12.15;;;10.85;;
28828;SDS011;15966;51.540;11.870;2023-04-10T11:47:03;12.05;;;10.82;;
28828;SDS011;15966;51.540;11.870;2023-04-10T11:49:30;13.32;;;11.57;;
28828;SDS011;15966;51.540;11.870;2023-04-10T11:51:58;12.18;;;10.98;;
28828;SDS011;15966;51.540;11.870;2023-04-10T11:54:24;12.52;;;10.55;;
28828;SDS011;15966;51.540;11.870;2023-04-10T11:56:56;12.18;;;10.93;;
28828;SDS011;15966;51.540;11.870;2023-04-10T11:59:26;11.95;;;10.65;;
28828;SDS011;15966;51.540;11.870;2023-04-10T12:01:54;12.37;;;10.07;;
28828;SDS011;15966;51.540;11.870;2023-04-10T12:04:34;10.35;;;9.23;;
28828;SDS011;15966;51.540;11.870;2023-04-10T12:07:01;9.85;;;7.80;;
28828;SDS011;15966;51.540;11.870;2023-04-10T12:09:27;9.57;;;8.27;;
28828;SDS011;15966;51.540;11.870;2023-04-10T12:11:57;9.90;;;8.77;;
28828;SDS011;15966;51.540;11.870;2023-04-10T12:14:28;12.18;;;9.23;;
28828;SDS011;15966;51.540;11.870;2023-04-10T12:16:56;12.45;;;9.35;;
28828;SDS011;15966;51.540;11.870;2023-04-10T12:19:23;9.87;;;8.87;;
28828;SDS011;15966;51.540;11.870;2023-04-10T12:21:49;10.63;;;9.10;;
28828;SDS011;15966;51.540;11.870;2023-04-10T12:27:17;9.13;;;8.23;;
28828;SDS011;15966;51.540;11.870;2023-04-10T12:29:45;9.15;;;8.25;;
28828;SDS011;15966;51.540;11.870;2023-04-10T12:32:12;10.77;;;8.50;;
28828;SDS011;15966;51.540;11.870;2023-04-10T12:34:38;9.88;;;8.88;;
28828;SDS011;15966;51.540;11.870;2023-04-10T12:37:05;12.88;;;8.98;;
28828;SDS011;15966;51.540;11.870;2023-04-10T12:39:31;11.02;;;8.70;;
28828;SDS011;15966;51.540;11.870;2023-04-10T12:45:03;9.38;;;8.45;;
28828;SDS011;15966;51.540;11.870;2023-04-10T12:47:30;9.95;;;8.60;;
28828;SDS011;15966;51.540;11.870;2023-04-10T12:50:09;9.93;;;8.88;;
28828;SDS011;15966;51.540;11.870;2023-04-10T12:52:39;9.38;;;7.78;;
28828;SDS011;15966;51.540;11.870;2023-04-10T12:55:10;8.77;;;7.95;;
28828;SDS011;15966;51.540;11.870;2023-04-10T12:57:36;9.23;;;8.32;;
28828;SDS011;15966;51.540;11.870;2023-04-10T13:00:04;8.32;;;6.75;;
28828;SDS011;15966;51.540;11.870;2023-04-10T13:02:30;10.98;;;7.50;;
28828;SDS011;15966;51.540;11.870;2023-04-10T13:04:56;10.30;;;7.47;;
28828;SDS011;15966;51.540;11.870;2023-04-10T13:07:23;7.65;;;6.78;;
28828;SDS011;15966;51.540;11.870;2023-04-10T13:09:49;9.57;;;8.43;;
28828;SDS011;15966;51.540;11.870;2023-04-10T13:12:15;12.90;;;7.65;;
28828;SDS011;15966;51.540;11.870;2023-04-10T13:14:41;9.68;;;7.47;;
28828;SDS011;15966;51.540;11.870;2023-04-10T13:17:07;8.43;;;7.55;;
28828;SDS011;15966;51.540;11.870;2023-04-10T13:19:33;9.45;;;7.22;;
28828;SDS011;15966;51.540;11.870;2023-04-10T13:21:59;7.70;;;6.90;;
28828;SDS011;15966;51.540;11.870;2023-04-10T13:24:25;8.90;;;7.97;;
28828;SDS011;15966;51.540;11.870;2023-04-10T13:26:52;9.20;;;8.23;;
28828;SDS011;15966;51.540;11.870;2023-04-10T13:29:18;9.98;;;7.53;;
28828;SDS011;15966;51.540;11.870;2023-04-10T13:31:44;8.82;;;7.93;;
28828;SDS011;15966;51.540;11.870;2023-04-10T13:34:10;9.98;;;8.85;;
28828;SDS011;15966;51.540;11.870;2023-04-10T13:36:36;9.05;;;8.15;;
28828;SDS011;15966;51.540;11.870;2023-04-10T13:39:02;9.63;;;8.43;;
28828;SDS011;15966;51.540;11.870;2023-04-10T13:41:29;8.50;;;7.00;;
28828;SDS011;15966;51.540;11.870;2023-04-10T13:43:55;9.35;;;8.35;;
28828;SDS011;15966;51.540;11.870;2023-04-10T13:46:21;9.30;;;8.50;;
28828;SDS011;15966;51.540;11.870;2023-04-10T13:48:47;8.80;;;8.00;;
28828;SDS011;15966;51.540;11.870;2023-04-10T13:51:13;9.25;;;8.27;;
28828;SDS011;15966;51.540;11.870;2023-04-10T13:53:39;9.48;;;8.18;;
28828;SDS011;15966;51.540;11.870;2023-04-10T13:56:05;7.93;;;6.82;;
28828;SDS011;15966;51.540;11.870;2023-04-10T13:58:32;8.68;;;7.78;;
28828;SDS011;15966;51.540;11.870;2023-04-10T14:00:58;7.38;;;6.68;;
28828;SDS011;15966;51.540;11.870;2023-04-10T14:03:25;9.50;;;6.00;;
28828;SDS011;15966;51.540;11.870;2023-04-10T14:05:51;8.45;;;7.50;;
28828;SDS011;15966;51.540;11.870;2023-04-10T14:08:17;9.43;;;7.80;;
28828;SDS011;15966;51.540;11.870;2023-04-10T14:10:44;8.75;;;7.78;;
28828;SDS011;15966;51.540;11.870;2023-04-10T14:13:14;8.68;;;7.78;;
28828;SDS011;15966;51.540;11.870;2023-04-10T14:15:43;10.63;;;7.30;;
28828;SDS011;15966;51.540;11.870;2023-04-10T14:18:09;6.90;;;6.25;;
28828;SDS011;15966;51.540;11.870;2023-04-10T14:20:35;8.63;;;7.82;;
28828;SDS011;15966;51.540;11.870;2023-04-10T14:23:01;8.07;;;7.32;;
28828;SDS011;15966;51.540;11.870;2023-04-10T14:25:27;7.10;;;6.40;;
28828;SDS011;15966;51.540;11.870;2023-04-10T14:27:53;9.95;;;8.27;;
28828;SDS011;15966;51.540;11.870;2023-04-10T14:30:19;7.55;;;6.75;;
28828;SDS011;15966;51.540;11.870;2023-04-10T14:32:46;7.47;;;6.68;;
28828;SDS011;15966;51.540;11.870;2023-04-10T14:35:12;7.97;;;7.10;;
28828;SDS011;15966;51.540;11.870;2023-04-10T14:37:38;8.90;;;8.00;;
28828;SDS011;15966;51.540;11.870;2023-04-10T14:40:04;10.70;;;8.38;;
28828;SDS011;15966;51.540;11.870;2023-04-10T14:42:30;9.75;;;8.73;;
28828;SDS011;15966;51.540;11.870;2023-04-10T14:44:56;9.60;;;8.70;;
28828;SDS011;15966;51.540;11.870;2023-04-10T14:47:23;10.57;;;8.68;;
28828;SDS011;15966;51.540;11.870;2023-04-10T14:49:49;8.43;;;7.63;;
28828;SDS011;15966;51.540;11.870;2023-04-10T14:52:15;8.63;;;7.80;;
28828;SDS011;15966;51.540;11.870;2023-04-10T14:54:42;8.43;;;7.63;;
28828;SDS011;15966;51.540;11.870;2023-04-10T14:57:08;9.27;;;8.18;;
28828;SDS011;15966;51.540;11.870;2023-04-10T14:59:34;7.72;;;6.93;;
28828;SDS011;15966;51.540;11.870;2023-04-10T15:02:01;8.57;;;7.68;;
28828;SDS011;15966;51.540;11.870;2023-04-10T15:04:30;9.00;;;8.18;;
28828;SDS011;15966;51.540;11.870;2023-04-10T15:06:56;10.65;;;8.43;;
28828;SDS011;15966;51.540;11.870;2023-04-10T15:09:22;10.05;;;7.80;;
28828;SDS011;15966;51.540;11.870;2023-04-10T15:11:48;8.68;;;7.82;;
28828;SDS011;15966;51.540;11.870;2023-04-10T15:14:14;8.15;;;7.35;;
28828;SDS011;15966;51.540;11.870;2023-04-10T15:16:40;10.10;;;8.85;;